Hobart Regional Airport
KHBR : rendu visible

Aérodrome :











RETROUVEZ-NOUS SUR...

 
LOGIN :

S'inscrire | Disclaimer

   EN    FR    IT 

 









Légende :    VFR   VFR Marginal   IFR   IFR Intensif   IFR Très Intensif
Visi : 
Plafond : 
>= 8 km
>= 3000ft
5 à 8 km
1000 à 3000 ft
1500m à 5 km
500 à 1000 ft
800 à 1500m
200 à 500 ft
< 800m
< 200 ft
Symboles :   Orages  Brouillard  Fortes neiges  Fortes précipitations  Vent > 20 kt






- Altitude de l'aérodrome : 1563 ft


KHBR - Hobart Regional

DERNIER METAR :
  • 271953Z AUTO 01013KT 7SM -FZRA OVC007 01/M01 A3018 RMK AO2 CIG 007V012 SLP233 P0001 I1000 T00061006 $

METARs EXPIRÉS :
  • 271941Z AUTO 01014G21KT 1 3/4SM -FZRA BR OVC008 01/M01 A3019 RMK AO2 P0000 I1000 T00061011 $
  • 271925Z AUTO 02016G21KT 7SM -FZRA BKN008 OVC012 01/M01 A3018 RMK AO2 CIG 006V010 P0000 I1000 T00061011 $
  • 271913Z AUTO 03014G22KT 7SM -FZRA BKN010 OVC023 01/M01 A3018 RMK AO2 P0000 I1000 T00061006 $
  • 271900Z AUTO 02016G21KT 4SM -FZRA BR BKN009 OVC012 01/M01 A3019 RMK AO2 PRESFR P0000 I1000 T00061006 $
  • 271807Z AUTO 02015G21KT 5SM -FZRA BR OVC009 01/M01 A3023 RMK AO2 RAE04FZRAB04 P0001 I1001 T00061011 $
  • 271753Z AUTO 02013G22KT 10SM -RA OVC010 01/M01 A3023 RMK AO2 RAB52FZRAE23 SLP251 P0000 60052 I1005 I6028 T00061011 10006 21011 56024 $
  • 271738Z AUTO 03015G25KT 10SM OVC010 01/M01 A3023 RMK AO2 FZRAE23 P0000 I1005 T00061011 $
  • 271729Z AUTO 03017G22KT 10SM OVC008 01/M01 A3024 RMK AO2 FZRAE23 CIG 007V013 P0000 I1004 T00061011 $

Prévision TAF périmée.
FIR KZFW / Amérique du Nord



MET'MAP, la Météo Aéronautique d'un coup d'oeil ! - Copyright ORBIFLY Décembre 2007 - Disclaimer

ORBIFLY MET'MAP TEAM :

Programmation & Développement : Alexandra Zaïnal
Sur une idée originale de : Baudouin d'Aumeries
Assistance à la programmation : Marc-Olivier Méhu
Soutien technique & logistique : Manuel Goepfert

Contact : metmap@orbifly.com




SOURCES & CREDITS :

   NOAA       Earth
Advisory